sensor_id;sensor_type;location;lat;lon;timestamp;temperature;humidity
74666;DHT22;71408;50.106;8.694;2023-08-24T00:01:37;29.70;43.00
74666;DHT22;71408;50.106;8.694;2023-08-24T00:04:03;29.70;43.10
74666;DHT22;71408;50.106;8.694;2023-08-24T00:06:28;29.60;43.10
74666;DHT22;71408;50.106;8.694;2023-08-24T00:08:54;29.70;43.10
74666;DHT22;71408;50.106;8.694;2023-08-24T00:11:19;29.60;43.10
74666;DHT22;71408;50.106;8.694;2023-08-24T00:13:45;29.60;43.20
74666;DHT22;71408;50.106;8.694;2023-08-24T00:16:17;29.60;43.30
74666;DHT22;71408;50.106;8.694;2023-08-24T00:18:43;29.60;43.30
74666;DHT22;71408;50.106;8.694;2023-08-24T00:21:10;29.60;43.30
74666;DHT22;71408;50.106;8.694;2023-08-24T00:23:35;29.60;43.30
74666;DHT22;71408;50.106;8.694;2023-08-24T00:26:01;29.60;43.40
74666;DHT22;71408;50.106;8.694;2023-08-24T00:28:26;29.70;43.40
74666;DHT22;71408;50.106;8.694;2023-08-24T00:30:52;29.60;43.40
74666;DHT22;71408;50.106;8.694;2023-08-24T00:33:17;29.60;43.40
74666;DHT22;71408;50.106;8.694;2023-08-24T00:35:43;29.60;43.40
74666;DHT22;71408;50.106;8.694;2023-08-24T00:38:08;29.60;43.50
74666;DHT22;71408;50.106;8.694;2023-08-24T00:40:34;29.60;43.50
74666;DHT22;71408;50.106;8.694;2023-08-24T00:42:59;29.60;43.50
74666;DHT22;71408;50.106;8.694;2023-08-24T00:45:25;29.60;43.50
74666;DHT22;71408;50.106;8.694;2023-08-24T00:47:50;29.70;43.70
74666;DHT22;71408;50.106;8.694;2023-08-24T00:50:17;29.60;43.60
74666;DHT22;71408;50.106;8.694;2023-08-24T00:52:43;29.60;43.70
74666;DHT22;71408;50.106;8.694;2023-08-24T00:55:09;29.60;43.70
74666;DHT22;71408;50.106;8.694;2023-08-24T00:57:37;29.60;43.70
74666;DHT22;71408;50.106;8.694;2023-08-24T01:00:05;29.60;43.70
74666;DHT22;71408;50.106;8.694;2023-08-24T01:02:31;29.60;43.70
74666;DHT22;71408;50.106;8.694;2023-08-24T01:04:57;29.60;43.80
74666;DHT22;71408;50.106;8.694;2023-08-24T01:07:23;29.60;44.40
74666;DHT22;71408;50.106;8.694;2023-08-24T01:09:49;29.60;43.80
74666;DHT22;71408;50.106;8.694;2023-08-24T01:18:04;29.60;44.00
74666;DHT22;71408;50.106;8.694;2023-08-24T01:20:30;29.50;44.00
74666;DHT22;71408;50.106;8.694;2023-08-24T01:23:19;29.50;44.10
74666;DHT22;71408;50.106;8.694;2023-08-24T01:26:18;29.50;44.10
74666;DHT22;71408;50.106;8.694;2023-08-24T01:28:45;29.50;44.20
74666;DHT22;71408;50.106;8.694;2023-08-24T01:31:10;29.50;44.20
74666;DHT22;71408;50.106;8.694;2023-08-24T01:33:36;29.50;44.20
74666;DHT22;71408;50.106;8.694;2023-08-24T01:36:01;29.50;44.30
74666;DHT22;71408;50.106;8.694;2023-08-24T01:38:27;29.50;44.30
74666;DHT22;71408;50.106;8.694;2023-08-24T01:41:06;29.50;44.30
74666;DHT22;71408;50.106;8.694;2023-08-24T01:43:34;29.50;44.30
74666;DHT22;71408;50.106;8.694;2023-08-24T01:46:03;29.50;44.30
74666;DHT22;71408;50.106;8.694;2023-08-24T01:48:29;29.50;44.30
74666;DHT22;71408;50.106;8.694;2023-08-24T01:50:56;29.50;44.40
74666;DHT22;71408;50.106;8.694;2023-08-24T01:53:22;29.40;44.40
74666;DHT22;71408;50.106;8.694;2023-08-24T01:55:48;29.40;44.50
74666;DHT22;71408;50.106;8.694;2023-08-24T01:58:13;29.40;44.50
74666;DHT22;71408;50.106;8.694;2023-08-24T02:00:39;29.40;44.50
74666;DHT22;71408;50.106;8.694;2023-08-24T02:03:04;29.40;44.50
74666;DHT22;71408;50.106;8.694;2023-08-24T02:05:30;29.40;44.60
74666;DHT22;71408;50.106;8.694;2023-08-24T02:07:55;29.40;44.50
74666;DHT22;71408;50.106;8.694;2023-08-24T02:10:22;29.40;44.60
74666;DHT22;71408;50.106;8.694;2023-08-24T02:12:48;29.40;44.50
74666;DHT22;71408;50.106;8.694;2023-08-24T02:15:14;29.40;44.60
74666;DHT22;71408;50.106;8.694;2023-08-24T02:17:39;29.40;44.50
74666;DHT22;71408;50.106;8.694;2023-08-24T02:20:05;29.40;44.60
74666;DHT22;71408;50.106;8.694;2023-08-24T02:22:31;29.40;44.60
74666;DHT22;71408;50.106;8.694;2023-08-24T02:24:56;29.40;44.60
74666;DHT22;71408;50.106;8.694;2023-08-24T02:27:22;29.40;44.60
74666;DHT22;71408;50.106;8.694;2023-08-24T02:29:47;29.40;44.60
74666;DHT22;71408;50.106;8.694;2023-08-24T02:32:13;29.50;44.70
74666;DHT22;71408;50.106;8.694;2023-08-24T02:34:38;29.40;44.70
74666;DHT22;71408;50.106;8.694;2023-08-24T02:37:04;29.40;44.70
74666;DHT22;71408;50.106;8.694;2023-08-24T02:39:29;29.40;44.80
74666;DHT22;71408;50.106;8.694;2023-08-24T02:41:55;29.40;44.80
74666;DHT22;71408;50.106;8.694;2023-08-24T02:44:20;29.40;44.80
74666;DHT22;71408;50.106;8.694;2023-08-24T02:46:47;29.40;44.90
74666;DHT22;71408;50.106;8.694;2023-08-24T02:49:13;29.40;44.80
74666;DHT22;71408;50.106;8.694;2023-08-24T02:51:38;29.40;45.50
74666;DHT22;71408;50.106;8.694;2023-08-24T02:54:04;29.40;44.80
74666;DHT22;71408;50.106;8.694;2023-08-24T02:56:29;29.40;44.80
74666;DHT22;71408;50.106;8.694;2023-08-24T02:58:55;29.40;44.80
74666;DHT22;71408;50.106;8.694;2023-08-24T03:01:20;29.40;44.80
74666;DHT22;71408;50.106;8.694;2023-08-24T03:03:46;29.40;44.80
74666;DHT22;71408;50.106;8.694;2023-08-24T03:06:12;29.40;44.90
74666;DHT22;71408;50.106;8.694;2023-08-24T03:08:37;29.40;44.90
74666;DHT22;71408;50.106;8.694;2023-08-24T03:11:03;29.40;44.90
74666;DHT22;71408;50.106;8.694;2023-08-24T03:13:29;29.40;45.10
74666;DHT22;71408;50.106;8.694;2023-08-24T03:15:55;29.30;45.00
74666;DHT22;71408;50.106;8.694;2023-08-24T03:18:20;29.30;45.00
74666;DHT22;71408;50.106;8.694;2023-08-24T03:20:47;29.30;45.10
74666;DHT22;71408;50.106;8.694;2023-08-24T03:23:12;29.30;45.20
74666;DHT22;71408;50.106;8.694;2023-08-24T03:25:38;29.30;45.20
74666;DHT22;71408;50.106;8.694;2023-08-24T03:28:04;29.30;45.20
74666;DHT22;71408;50.106;8.694;2023-08-24T03:30:30;29.30;45.30
74666;DHT22;71408;50.106;8.694;2023-08-24T03:32:55;29.30;45.30
74666;DHT22;71408;50.106;8.694;2023-08-24T03:35:21;29.30;45.30
74666;DHT22;71408;50.106;8.694;2023-08-24T03:37:47;29.30;45.20
74666;DHT22;71408;50.106;8.694;2023-08-24T03:40:12;29.30;45.30
74666;DHT22;71408;50.106;8.694;2023-08-24T03:42:38;29.30;45.20
74666;DHT22;71408;50.106;8.694;2023-08-24T03:45:04;29.30;45.20
74666;DHT22;71408;50.106;8.694;2023-08-24T03:47:29;29.30;45.20
74666;DHT22;71408;50.106;8.694;2023-08-24T03:49:55;29.20;45.10
74666;DHT22;71408;50.106;8.694;2023-08-24T03:52:20;29.30;45.20
74666;DHT22;71408;50.106;8.694;2023-08-24T03:54:46;29.20;45.20
74666;DHT22;71408;50.106;8.694;2023-08-24T03:57:11;29.20;45.20
74666;DHT22;71408;50.106;8.694;2023-08-24T03:59:37;29.20;45.90
74666;DHT22;71408;50.106;8.694;2023-08-24T04:02:02;29.20;45.20
74666;DHT22;71408;50.106;8.694;2023-08-24T04:04:30;29.20;45.30
74666;DHT22;71408;50.106;8.694;2023-08-24T04:06:55;29.20;45.30
74666;DHT22;71408;50.106;8.694;2023-08-24T04:09:21;29.20;45.30
74666;DHT22;71408;50.106;8.694;2023-08-24T04:11:46;29.20;45.30
74666;DHT22;71408;50.106;8.694;2023-08-24T04:14:12;29.20;45.40
74666;DHT22;71408;50.106;8.694;2023-08-24T04:16:39;29.10;45.30
74666;DHT22;71408;50.106;8.694;2023-08-24T04:19:04;29.20;45.40
74666;DHT22;71408;50.106;8.694;2023-08-24T04:21:30;29.20;45.40
74666;DHT22;71408;50.106;8.694;2023-08-24T04:23:55;29.10;45.40
74666;DHT22;71408;50.106;8.694;2023-08-24T04:26:21;29.10;45.40
74666;DHT22;71408;50.106;8.694;2023-08-24T04:28:46;29.10;46.00
74666;DHT22;71408;50.106;8.694;2023-08-24T04:31:11;29.10;45.30
74666;DHT22;71408;50.106;8.694;2023-08-24T04:33:37;29.10;45.20
74666;DHT22;71408;50.106;8.694;2023-08-24T04:36:02;29.10;45.30
74666;DHT22;71408;50.106;8.694;2023-08-24T04:38:31;29.10;45.20
74666;DHT22;71408;50.106;8.694;2023-08-24T04:40:56;29.10;45.30
74666;DHT22;71408;50.106;8.694;2023-08-24T04:43:23;29.10;45.30
74666;DHT22;71408;50.106;8.694;2023-08-24T04:45:49;29.10;45.40
74666;DHT22;71408;50.106;8.694;2023-08-24T04:48:16;29.10;45.40
74666;DHT22;71408;50.106;8.694;2023-08-24T04:50:43;29.10;45.50
74666;DHT22;71408;50.106;8.694;2023-08-24T04:53:09;29.10;45.40
74666;DHT22;71408;50.106;8.694;2023-08-24T04:55:34;29.10;45.50
74666;DHT22;71408;50.106;8.694;2023-08-24T04:57:59;29.10;45.40
74666;DHT22;71408;50.106;8.694;2023-08-24T05:00:25;29.10;45.30
74666;DHT22;71408;50.106;8.694;2023-08-24T05:02:51;29.10;45.00
74666;DHT22;71408;50.106;8.694;2023-08-24T05:05:16;29.10;45.20
74666;DHT22;71408;50.106;8.694;2023-08-24T05:07:42;29.10;45.40
74666;DHT22;71408;50.106;8.694;2023-08-24T05:10:08;29.00;45.40
74666;DHT22;71408;50.106;8.694;2023-08-24T05:12:33;29.10;45.50
74666;DHT22;71408;50.106;8.694;2023-08-24T05:15:01;29.10;45.30
74666;DHT22;71408;50.106;8.694;2023-08-24T05:17:26;29.10;45.30
74666;DHT22;71408;50.106;8.694;2023-08-24T05:19:53;29.10;45.20
74666;DHT22;71408;50.106;8.694;2023-08-24T05:22:19;29.10;45.20
74666;DHT22;71408;50.106;8.694;2023-08-24T05:24:44;29.10;45.20
74666;DHT22;71408;50.106;8.694;2023-08-24T05:27:10;29.10;45.20
74666;DHT22;71408;50.106;8.694;2023-08-24T05:29:35;29.10;45.30
74666;DHT22;71408;50.106;8.694;2023-08-24T05:32:01;29.10;45.30
74666;DHT22;71408;50.106;8.694;2023-08-24T05:34:28;29.20;45.40
74666;DHT22;71408;50.106;8.694;2023-08-24T05:36:53;29.10;45.30
74666;DHT22;71408;50.106;8.694;2023-08-24T05:39:19;29.10;45.20
74666;DHT22;71408;50.106;8.694;2023-08-24T05:41:44;29.20;45.30
74666;DHT22;71408;50.106;8.694;2023-08-24T05:44:10;29.20;45.20
74666;DHT22;71408;50.106;8.694;2023-08-24T05:46:35;29.10;45.10
74666;DHT22;71408;50.106;8.694;2023-08-24T05:49:01;29.20;45.20
74666;DHT22;71408;50.106;8.694;2023-08-24T05:51:26;29.20;45.30
74666;DHT22;71408;50.106;8.694;2023-08-24T05:53:52;29.20;45.30
74666;DHT22;71408;50.106;8.694;2023-08-24T05:56:21;29.20;45.20
74666;DHT22;71408;50.106;8.694;2023-08-24T05:58:47;29.20;45.20
74666;DHT22;71408;50.106;8.694;2023-08-24T06:01:12;29.20;45.20
74666;DHT22;71408;50.106;8.694;2023-08-24T06:03:38;29.20;45.10
74666;DHT22;71408;50.106;8.694;2023-08-24T06:06:03;29.20;45.10
74666;DHT22;71408;50.106;8.694;2023-08-24T06:08:29;29.20;45.10
74666;DHT22;71408;50.106;8.694;2023-08-24T06:10:55;29.20;45.20
74666;DHT22;71408;50.106;8.694;2023-08-24T06:13:21;29.20;45.20
74666;DHT22;71408;50.106;8.694;2023-08-24T06:15:46;29.10;45.80
74666;DHT22;71408;50.106;8.694;2023-08-24T06:18:12;29.20;45.20
74666;DHT22;71408;50.106;8.694;2023-08-24T06:20:37;29.20;45.20
74666;DHT22;71408;50.106;8.694;2023-08-24T06:23:02;29.00;45.00
74666;DHT22;71408;50.106;8.694;2023-08-24T06:25:28;28.60;45.20
74666;DHT22;71408;50.106;8.694;2023-08-24T06:27:53;28.30;46.00
74666;DHT22;71408;50.106;8.694;2023-08-24T06:30:19;28.10;46.30
74666;DHT22;71408;50.106;8.694;2023-08-24T06:32:44;27.90;46.50
74666;DHT22;71408;50.106;8.694;2023-08-24T06:35:10;27.60;47.00
74666;DHT22;71408;50.106;8.694;2023-08-24T06:37:39;27.50;47.10
74666;DHT22;71408;50.106;8.694;2023-08-24T06:40:05;27.30;47.50
74666;DHT22;71408;50.106;8.694;2023-08-24T06:42:31;27.30;47.90
74666;DHT22;71408;50.106;8.694;2023-08-24T06:44:56;27.20;48.60
74666;DHT22;71408;50.106;8.694;2023-08-24T06:47:22;27.00;49.20
74666;DHT22;71408;50.106;8.694;2023-08-24T06:49:47;27.00;49.50
74666;DHT22;71408;50.106;8.694;2023-08-24T06:52:13;27.00;49.70
74666;DHT22;71408;50.106;8.694;2023-08-24T06:54:38;27.00;49.60
74666;DHT22;71408;50.106;8.694;2023-08-24T06:57:04;26.90;49.80
74666;DHT22;71408;50.106;8.694;2023-08-24T06:59:29;27.00;49.80
74666;DHT22;71408;50.106;8.694;2023-08-24T07:01:55;26.90;49.90
74666;DHT22;71408;50.106;8.694;2023-08-24T07:04:20;26.90;49.80
74666;DHT22;71408;50.106;8.694;2023-08-24T07:06:46;26.80;50.10
74666;DHT22;71408;50.106;8.694;2023-08-24T07:09:11;26.70;50.50
74666;DHT22;71408;50.106;8.694;2023-08-24T07:11:37;26.60;50.70
74666;DHT22;71408;50.106;8.694;2023-08-24T07:14:02;26.40;51.00
74666;DHT22;71408;50.106;8.694;2023-08-24T07:16:28;26.20;51.40
74666;DHT22;71408;50.106;8.694;2023-08-24T07:18:53;26.20;51.30
74666;DHT22;71408;50.106;8.694;2023-08-24T07:21:18;26.10;51.40
74666;DHT22;71408;50.106;8.694;2023-08-24T07:23:44;26.10;51.70
74666;DHT22;71408;50.106;8.694;2023-08-24T07:26:10;26.20;51.50
74666;DHT22;71408;50.106;8.694;2023-08-24T07:28:35;26.30;51.40
74666;DHT22;71408;50.106;8.694;2023-08-24T07:31:10;26.30;51.00
74666;DHT22;71408;50.106;8.694;2023-08-24T07:33:39;26.40;50.90
74666;DHT22;71408;50.106;8.694;2023-08-24T07:36:05;26.30;50.90
74666;DHT22;71408;50.106;8.694;2023-08-24T07:38:31;26.30;51.00
74666;DHT22;71408;50.106;8.694;2023-08-24T07:40:57;26.30;51.00
74666;DHT22;71408;50.106;8.694;2023-08-24T07:43:22;26.30;51.00
74666;DHT22;71408;50.106;8.694;2023-08-24T07:45:48;26.40;50.90
74666;DHT22;71408;50.106;8.694;2023-08-24T07:48:13;26.40;51.60
74666;DHT22;71408;50.106;8.694;2023-08-24T07:50:38;26.30;51.40
74666;DHT22;71408;50.106;8.694;2023-08-24T07:53:04;26.20;51.40
74666;DHT22;71408;50.106;8.694;2023-08-24T07:55:30;26.20;51.50
74666;DHT22;71408;50.106;8.694;2023-08-24T07:57:55;26.10;51.70
74666;DHT22;71408;50.106;8.694;2023-08-24T08:00:21;26.20;51.70
74666;DHT22;71408;50.106;8.694;2023-08-24T08:02:49;26.20;51.60
74666;DHT22;71408;50.106;8.694;2023-08-24T08:05:14;26.20;51.70
74666;DHT22;71408;50.106;8.694;2023-08-24T08:07:40;26.40;51.50
74666;DHT22;71408;50.106;8.694;2023-08-24T08:10:05;26.40;51.50
74666;DHT22;71408;50.106;8.694;2023-08-24T08:12:32;26.40;51.20
74666;DHT22;71408;50.106;8.694;2023-08-24T08:14:57;26.30;51.40
74666;DHT22;71408;50.106;8.694;2023-08-24T08:17:23;26.20;51.50
74666;DHT22;71408;50.106;8.694;2023-08-24T08:19:48;26.10;51.60
74666;DHT22;71408;50.106;8.694;2023-08-24T08:22:14;26.00;51.70
74666;DHT22;71408;50.106;8.694;2023-08-24T08:24:39;26.00;51.80
74666;DHT22;71408;50.106;8.694;2023-08-24T08:27:05;26.00;51.90
74666;DHT22;71408;50.106;8.694;2023-08-24T08:29:30;26.20;51.80
74666;DHT22;71408;50.106;8.694;2023-08-24T08:31:56;26.30;51.70
74666;DHT22;71408;50.106;8.694;2023-08-24T08:34:21;26.30;51.60
74666;DHT22;71408;50.106;8.694;2023-08-24T08:36:47;26.20;51.50
74666;DHT22;71408;50.106;8.694;2023-08-24T08:39:13;26.30;51.40
74666;DHT22;71408;50.106;8.694;2023-08-24T08:41:42;26.30;51.20
74666;DHT22;71408;50.106;8.694;2023-08-24T08:44:09;26.40;51.00
74666;DHT22;71408;50.106;8.694;2023-08-24T08:46:37;26.50;50.80
74666;DHT22;71408;50.106;8.694;2023-08-24T08:49:03;26.50;50.70
74666;DHT22;71408;50.106;8.694;2023-08-24T08:51:31;26.60;50.60
74666;DHT22;71408;50.106;8.694;2023-08-24T08:53:57;26.70;50.30
74666;DHT22;71408;50.106;8.694;2023-08-24T08:56:23;26.70;50.40
74666;DHT22;71408;50.106;8.694;2023-08-24T08:58:48;26.70;50.60
74666;DHT22;71408;50.106;8.694;2023-08-24T09:01:14;26.80;50.60
74666;DHT22;71408;50.106;8.694;2023-08-24T09:03:40;26.90;50.50
74666;DHT22;71408;50.106;8.694;2023-08-24T09:06:06;26.90;50.20
74666;DHT22;71408;50.106;8.694;2023-08-24T09:08:31;26.80;50.30
74666;DHT22;71408;50.106;8.694;2023-08-24T09:10:58;26.80;50.40
74666;DHT22;71408;50.106;8.694;2023-08-24T09:13:24;26.80;50.30
74666;DHT22;71408;50.106;8.694;2023-08-24T09:15:51;27.00;50.20
74666;DHT22;71408;50.106;8.694;2023-08-24T09:18:16;27.00;50.00
74666;DHT22;71408;50.106;8.694;2023-08-24T09:20:42;27.10;49.80
74666;DHT22;71408;50.106;8.694;2023-08-24T09:23:16;27.10;50.00
74666;DHT22;71408;50.106;8.694;2023-08-24T09:25:44;27.10;50.00
74666;DHT22;71408;50.106;8.694;2023-08-24T09:28:10;27.30;49.60
74666;DHT22;71408;50.106;8.694;2023-08-24T09:30:36;27.20;49.70
74666;DHT22;71408;50.106;8.694;2023-08-24T09:33:12;27.20;49.60
74666;DHT22;71408;50.106;8.694;2023-08-24T09:35:38;27.30;49.40
74666;DHT22;71408;50.106;8.694;2023-08-24T09:38:16;27.30;49.20
74666;DHT22;71408;50.106;8.694;2023-08-24T09:40:44;27.40;49.10
74666;DHT22;71408;50.106;8.694;2023-08-24T09:43:13;27.50;49.10
74666;DHT22;71408;50.106;8.694;2023-08-24T09:45:38;27.40;49.00
74666;DHT22;71408;50.106;8.694;2023-08-24T09:48:05;27.60;48.90
74666;DHT22;71408;50.106;8.694;2023-08-24T09:50:31;27.50;48.90
74666;DHT22;71408;50.106;8.694;2023-08-24T09:52:57;27.70;48.90
74666;DHT22;71408;50.106;8.694;2023-08-24T09:55:25;27.60;48.90
74666;DHT22;71408;50.106;8.694;2023-08-24T09:57:55;27.80;48.70
74666;DHT22;71408;50.106;8.694;2023-08-24T10:00:22;27.90;48.40
74666;DHT22;71408;50.106;8.694;2023-08-24T10:02:50;27.80;48.50
74666;DHT22;71408;50.106;8.694;2023-08-24T10:05:19;27.80;48.50
74666;DHT22;71408;50.106;8.694;2023-08-24T10:07:55;27.70;48.60
74666;DHT22;71408;50.106;8.694;2023-08-24T10:10:21;27.90;48.50
74666;DHT22;71408;50.106;8.694;2023-08-24T10:12:47;27.90;48.40
74666;DHT22;71408;50.106;8.694;2023-08-24T10:15:15;28.00;48.30
74666;DHT22;71408;50.106;8.694;2023-08-24T10:17:42;28.10;48.10
74666;DHT22;71408;50.106;8.694;2023-08-24T10:20:09;28.10;48.00
74666;DHT22;71408;50.106;8.694;2023-08-24T10:22:35;28.10;48.00
74666;DHT22;71408;50.106;8.694;2023-08-24T10:25:04;28.10;47.90
74666;DHT22;71408;50.106;8.694;2023-08-24T10:27:30;28.10;48.10
74666;DHT22;71408;50.106;8.694;2023-08-24T10:29:56;28.20;48.00
74666;DHT22;71408;50.106;8.694;2023-08-24T10:32:24;28.30;47.90
74666;DHT22;71408;50.106;8.694;2023-08-24T10:34:50;28.30;47.80
74666;DHT22;71408;50.106;8.694;2023-08-24T10:37:16;28.40;47.60
74666;DHT22;71408;50.106;8.694;2023-08-24T10:39:44;28.40;47.50
74666;DHT22;71408;50.106;8.694;2023-08-24T10:42:14;28.40;47.40
74666;DHT22;71408;50.106;8.694;2023-08-24T10:44:43;28.30;47.60
74666;DHT22;71408;50.106;8.694;2023-08-24T10:49:59;28.40;47.80
74666;DHT22;71408;50.106;8.694;2023-08-24T10:52:59;28.40;47.80
74666;DHT22;71408;50.106;8.694;2023-08-24T10:55:24;28.40;48.00
74666;DHT22;71408;50.106;8.694;2023-08-24T10:57:57;28.40;48.00
74666;DHT22;71408;50.106;8.694;2023-08-24T11:00:25;28.40;47.90
74666;DHT22;71408;50.106;8.694;2023-08-24T11:02:51;28.60;48.20
74666;DHT22;71408;50.106;8.694;2023-08-24T11:05:17;28.70;48.20
74666;DHT22;71408;50.106;8.694;2023-08-24T11:07:56;28.70;48.00
74666;DHT22;71408;50.106;8.694;2023-08-24T11:10:22;28.70;47.90
74666;DHT22;71408;50.106;8.694;2023-08-24T11:13:04;28.70;47.90
74666;DHT22;71408;50.106;8.694;2023-08-24T11:15:30;28.80;48.10
74666;DHT22;71408;50.106;8.694;2023-08-24T11:18:15;28.80;48.00
74666;DHT22;71408;50.106;8.694;2023-08-24T11:20:45;28.70;48.00
74666;DHT22;71408;50.106;8.694;2023-08-24T11:23:10;28.80;48.00
74666;DHT22;71408;50.106;8.694;2023-08-24T11:25:36;28.90;47.90
74666;DHT22;71408;50.106;8.694;2023-08-24T11:28:03;28.80;48.00
74666;DHT22;71408;50.106;8.694;2023-08-24T11:30:29;28.90;48.00
74666;DHT22;71408;50.106;8.694;2023-08-24T11:32:54;29.00;47.80
74666;DHT22;71408;50.106;8.694;2023-08-24T11:35:20;29.00;47.50
74666;DHT22;71408;50.106;8.694;2023-08-24T11:37:51;29.00;47.60
74666;DHT22;71408;50.106;8.694;2023-08-24T11:40:16;29.10;47.60
74666;DHT22;71408;50.106;8.694;2023-08-24T11:42:42;29.10;47.50
74666;DHT22;71408;50.106;8.694;2023-08-24T11:45:11;29.10;47.50
74666;DHT22;71408;50.106;8.694;2023-08-24T11:47:38;29.10;47.40
74666;DHT22;71408;50.106;8.694;2023-08-24T11:50:03;29.20;47.40
74666;DHT22;71408;50.106;8.694;2023-08-24T11:52:29;29.30;47.20
74666;DHT22;71408;50.106;8.694;2023-08-24T11:54:54;29.30;47.30
74666;DHT22;71408;50.106;8.694;2023-08-24T11:57:20;29.30;46.60
74666;DHT22;71408;50.106;8.694;2023-08-24T11:59:45;29.30;46.00
74666;DHT22;71408;50.106;8.694;2023-08-24T12:02:11;29.40;45.60
74666;DHT22;71408;50.106;8.694;2023-08-24T12:04:37;29.40;45.50
74666;DHT22;71408;50.106;8.694;2023-08-24T12:07:08;29.40;44.60
74666;DHT22;71408;50.106;8.694;2023-08-24T12:09:33;29.50;44.60
74666;DHT22;71408;50.106;8.694;2023-08-24T12:11:59;29.50;44.30
74666;DHT22;71408;50.106;8.694;2023-08-24T12:14:24;29.50;44.20
74666;DHT22;71408;50.106;8.694;2023-08-24T12:16:50;29.50;44.20
74666;DHT22;71408;50.106;8.694;2023-08-24T12:19:21;29.50;43.90
74666;DHT22;71408;50.106;8.694;2023-08-24T12:21:49;29.50;43.90
74666;DHT22;71408;50.106;8.694;2023-08-24T12:24:15;29.50;44.10
74666;DHT22;71408;50.106;8.694;2023-08-24T12:26:41;29.50;44.10
74666;DHT22;71408;50.106;8.694;2023-08-24T12:29:07;29.50;44.30
74666;DHT22;71408;50.106;8.694;2023-08-24T12:31:33;29.50;44.10
74666;DHT22;71408;50.106;8.694;2023-08-24T12:33:59;29.50;44.10
74666;DHT22;71408;50.106;8.694;2023-08-24T12:36:25;29.40;44.00
74666;DHT22;71408;50.106;8.694;2023-08-24T12:38:50;29.40;44.50
74666;DHT22;71408;50.106;8.694;2023-08-24T12:41:16;29.40;44.50
74666;DHT22;71408;50.106;8.694;2023-08-24T12:43:41;29.40;44.50
74666;DHT22;71408;50.106;8.694;2023-08-24T12:46:07;29.50;44.50
74666;DHT22;71408;50.106;8.694;2023-08-24T12:48:32;29.50;44.40
74666;DHT22;71408;50.106;8.694;2023-08-24T12:50:58;29.50;44.60
74666;DHT22;71408;50.106;8.694;2023-08-24T12:53:23;29.50;44.80
74666;DHT22;71408;50.106;8.694;2023-08-24T12:55:49;29.50;45.00
74666;DHT22;71408;50.106;8.694;2023-08-24T12:58:14;29.50;45.00
74666;DHT22;71408;50.106;8.694;2023-08-24T13:00:40;29.50;45.00
74666;DHT22;71408;50.106;8.694;2023-08-24T13:03:05;29.60;45.00
74666;DHT22;71408;50.106;8.694;2023-08-24T13:05:31;29.50;45.20
74666;DHT22;71408;50.106;8.694;2023-08-24T13:07:56;29.50;45.30
74666;DHT22;71408;50.106;8.694;2023-08-24T13:10:22;29.50;45.50
74666;DHT22;71408;50.106;8.694;2023-08-24T13:12:47;29.50;45.50
74666;DHT22;71408;50.106;8.694;2023-08-24T13:15:13;29.50;45.30
74666;DHT22;71408;50.106;8.694;2023-08-24T13:17:38;29.50;45.30
74666;DHT22;71408;50.106;8.694;2023-08-24T13:20:04;29.50;45.10
74666;DHT22;71408;50.106;8.694;2023-08-24T13:22:31;29.50;45.10
74666;DHT22;71408;50.106;8.694;2023-08-24T13:24:57;29.50;45.20
74666;DHT22;71408;50.106;8.694;2023-08-24T13:27:22;29.50;45.30
74666;DHT22;71408;50.106;8.694;2023-08-24T13:29:48;29.50;44.80
74666;DHT22;71408;50.106;8.694;2023-08-24T13:32:13;29.50;44.90
74666;DHT22;71408;50.106;8.694;2023-08-24T13:34:39;29.50;45.10
74666;DHT22;71408;50.106;8.694;2023-08-24T13:37:04;29.50;45.10
74666;DHT22;71408;50.106;8.694;2023-08-24T13:39:30;29.50;45.30
74666;DHT22;71408;50.106;8.694;2023-08-24T13:41:56;29.50;45.20
74666;DHT22;71408;50.106;8.694;2023-08-24T13:44:21;29.40;45.10
74666;DHT22;71408;50.106;8.694;2023-08-24T13:46:47;29.40;45.10
74666;DHT22;71408;50.106;8.694;2023-08-24T13:49:12;29.40;45.40
74666;DHT22;71408;50.106;8.694;2023-08-24T13:51:38;29.40;45.30
74666;DHT22;71408;50.106;8.694;2023-08-24T13:54:14;29.50;45.30
74666;DHT22;71408;50.106;8.694;2023-08-24T13:56:40;29.50;45.40
74666;DHT22;71408;50.106;8.694;2023-08-24T13:59:05;29.50;45.30
74666;DHT22;71408;50.106;8.694;2023-08-24T14:01:31;29.50;45.20
74666;DHT22;71408;50.106;8.694;2023-08-24T14:03:56;29.50;45.20
74666;DHT22;71408;50.106;8.694;2023-08-24T14:06:22;29.60;45.10
74666;DHT22;71408;50.106;8.694;2023-08-24T14:08:48;29.70;44.90
74666;DHT22;71408;50.106;8.694;2023-08-24T14:11:13;29.70;45.50
74666;DHT22;71408;50.106;8.694;2023-08-24T14:13:41;29.70;44.90
74666;DHT22;71408;50.106;8.694;2023-08-24T14:16:06;29.70;44.90
74666;DHT22;71408;50.106;8.694;2023-08-24T14:18:32;29.70;45.00
74666;DHT22;71408;50.106;8.694;2023-08-24T14:20:58;29.60;45.00
74666;DHT22;71408;50.106;8.694;2023-08-24T14:23:23;29.70;44.90
74666;DHT22;71408;50.106;8.694;2023-08-24T14:25:49;29.60;44.70
74666;DHT22;71408;50.106;8.694;2023-08-24T14:28:18;29.70;44.70
74666;DHT22;71408;50.106;8.694;2023-08-24T14:30:44;29.70;44.60
74666;DHT22;71408;50.106;8.694;2023-08-24T14:33:09;29.60;44.60
74666;DHT22;71408;50.106;8.694;2023-08-24T14:35:35;29.50;44.70
74666;DHT22;71408;50.106;8.694;2023-08-24T14:38:00;29.50;44.70
74666;DHT22;71408;50.106;8.694;2023-08-24T14:40:26;29.60;44.70
74666;DHT22;71408;50.106;8.694;2023-08-24T14:42:51;29.50;44.70
74666;DHT22;71408;50.106;8.694;2023-08-24T14:45:17;29.50;44.70
74666;DHT22;71408;50.106;8.694;2023-08-24T14:47:42;29.60;44.70
74666;DHT22;71408;50.106;8.694;2023-08-24T14:50:08;29.50;44.60
74666;DHT22;71408;50.106;8.694;2023-08-24T14:52:35;29.50;44.80
74666;DHT22;71408;50.106;8.694;2023-08-24T14:55:01;29.60;45.00
74666;DHT22;71408;50.106;8.694;2023-08-24T14:57:26;29.50;45.10
74666;DHT22;71408;50.106;8.694;2023-08-24T14:59:52;29.50;45.30
74666;DHT22;71408;50.106;8.694;2023-08-24T15:02:17;29.50;45.90
74666;DHT22;71408;50.106;8.694;2023-08-24T15:04:43;29.40;46.20
74666;DHT22;71408;50.106;8.694;2023-08-24T15:07:09;29.40;46.50
74666;DHT22;71408;50.106;8.694;2023-08-24T15:09:34;29.30;46.80
74666;DHT22;71408;50.106;8.694;2023-08-24T15:11:59;29.30;47.10
74666;DHT22;71408;50.106;8.694;2023-08-24T15:14:29;29.30;47.20
74666;DHT22;71408;50.106;8.694;2023-08-24T15:16:55;29.30;47.40
74666;DHT22;71408;50.106;8.694;2023-08-24T15:19:20;29.30;47.40
74666;DHT22;71408;50.106;8.694;2023-08-24T15:21:46;29.30;47.70
74666;DHT22;71408;50.106;8.694;2023-08-24T15:24:13;29.30;47.80
74666;DHT22;71408;50.106;8.694;2023-08-24T15:26:38;29.30;47.70
74666;DHT22;71408;50.106;8.694;2023-08-24T15:31:49;29.30;47.40
74666;DHT22;71408;50.106;8.694;2023-08-24T15:34:14;29.40;47.60
74666;DHT22;71408;50.106;8.694;2023-08-24T15:36:40;29.40;47.40